Time;durP1;ratioP1;P1;durP2;ratioP2;P2;SDS_P1;SDS_P2;PMS_P1;PMS_P2;Temp;Humidity;BMP_temperature;BMP_pressure;BME280_temperature;BME280_humidity;BME280_pressure;Samples;Min_cycle;Max_cycle;Signal;HPM_P1;HPM_P2
2023/05/23 00:01:05;;;;;;;13.23;11.83;;;15.10;99.90;;;;;;5033504;28;20270;-65
2023/05/23 00:03:31;;;;;;;12.97;11.63;;;15.10;99.90;;;;;;5033530;28;20190;-65
2023/05/23 00:05:57;;;;;;;14.77;13.20;;;15.00;99.90;;;;;;5034137;28;20176;-65
2023/05/23 00:08:23;;;;;;;13.77;12.47;;;15.00;99.90;;;;;;5033566;28;20210;-65
2023/05/23 00:10:49;;;;;;;14.37;13.00;;;15.00;99.90;;;;;;5033153;28;20203;-65
2023/05/23 00:13:14;;;;;;;15.43;13.70;;;15.00;99.90;;;;;;5033442;28;20179;-65
2023/05/23 00:15:45;;;;;;;15.50;13.90;;;14.90;99.90;;;;;;5033280;28;20177;-65
2023/05/23 00:18:11;;;;;;;13.93;12.53;;;14.90;99.90;;;;;;5033602;28;20168;-65
2023/05/23 00:20:40;;;;;;;13.23;11.97;;;14.90;99.90;;;;;;5032719;28;20203;-65
2023/05/23 00:23:08;;;;;;;15.77;13.67;;;14.90;99.90;;;;;;5033483;28;20170;-65
2023/05/23 00:25:37;;;;;;;13.47;12.07;;;14.80;99.90;;;;;;5033100;28;20207;-65
2023/05/23 00:28:03;;;;;;;16.17;14.47;;;14.80;99.90;;;;;;5033407;28;20218;-65
2023/05/23 00:30:30;;;;;;;19.77;13.80;;;14.70;99.90;;;;;;5032518;28;20206;-65
2023/05/23 00:32:56;;;;;;;15.63;14.00;;;14.70;99.90;;;;;;5033367;28;20352;-65
2023/05/23 00:35:25;;;;;;;16.33;13.87;;;14.70;99.90;;;;;;5031758;28;20533;-65
2023/05/23 00:37:51;;;;;;;15.47;13.10;;;14.80;99.90;;;;;;5032799;28;20649;-65
2023/05/23 00:40:17;;;;;;;15.03;13.43;;;14.90;99.90;;;;;;5033025;28;20191;-65
2023/05/23 00:42:43;;;;;;;15.73;13.93;;;14.90;99.90;;;;;;5032749;28;20184;-65
2023/05/23 00:45:11;;;;;;;17.67;13.73;;;15.00;99.90;;;;;;5033392;28;20179;-65
2023/05/23 00:47:38;;;;;;;16.20;13.20;;;15.00;99.90;;;;;;5032579;28;20179;-65
2023/05/23 00:50:06;;;;;;;14.20;12.80;;;15.10;99.90;;;;;;5032649;28;20215;-65
2023/05/23 00:52:32;;;;;;;16.13;14.23;;;15.20;99.90;;;;;;5032707;28;20645;-65
2023/05/23 00:54:57;;;;;;;17.53;14.73;;;15.20;99.90;;;;;;5032759;28;20188;-65
2023/05/23 00:57:23;;;;;;;17.97;15.30;;;15.30;99.90;;;;;;5032504;28;20180;-65
2023/05/23 00:59:50;;;;;;;17.60;13.47;;;15.40;99.90;;;;;;5032338;28;20207;-65
2023/05/23 01:02:15;;;;;;;16.87;15.07;;;15.40;99.90;;;;;;5032674;28;20217;-65
2023/05/23 01:04:42;;;;;;;16.50;14.70;;;15.50;99.90;;;;;;5032467;28;20233;-65
2023/05/23 01:07:09;;;;;;;16.90;14.27;;;15.60;99.90;;;;;;5031916;28;20175;-65
2023/05/23 01:09:35;;;;;;;15.27;13.67;;;15.70;99.90;;;;;;5029936;28;20210;-65
2023/05/23 01:12:21;;;;;;;14.17;12.73;;;15.70;99.90;;;;;;5032331;28;20171;-65
2023/05/23 01:15:09;;;;;;;14.10;12.70;;;15.70;99.90;;;;;;5032430;28;20429;-65
2023/05/23 01:17:43;;;;;;;14.77;13.20;;;15.80;99.90;;;;;;5032472;28;20203;-65
2023/05/23 01:20:11;;;;;;;14.27;12.77;;;15.80;99.90;;;;;;5032114;28;20202;-66
2023/05/23 01:22:52;;;;;;;13.47;12.07;;;15.90;99.90;;;;;;5031825;28;20436;-65
2023/05/23 01:25:27;;;;;;;11.80;10.63;;;15.90;99.90;;;;;;5032279;28;20178;-65
2023/05/23 01:27:59;;;;;;;13.87;10.67;;;15.90;99.90;;;;;;5032105;28;20536;-65
2023/05/23 01:30:27;;;;;;;11.10;10.17;;;15.90;99.90;;;;;;5031691;28;20230;-65
2023/05/23 01:32:55;;;;;;;10.67;9.67;;;15.90;99.90;;;;;;5031563;28;20191;-65
2023/05/23 01:35:25;;;;;;;10.17;9.17;;;15.90;99.90;;;;;;5032052;28;20179;-65
2023/05/23 01:37:52;;;;;;;8.90;8.20;;;15.90;99.90;;;;;;5031921;28;20171;-65
2023/05/23 01:40:18;;;;;;;8.83;8.13;;;15.80;99.90;;;;;;5031726;28;20195;-65
2023/05/23 01:42:43;;;;;;;8.83;8.13;;;15.80;99.90;;;;;;5031755;28;20939;-65
2023/05/23 01:45:10;;;;;;;7.40;6.80;;;15.80;99.90;;;;;;5032006;28;20723;-65
2023/05/23 01:47:37;;;;;;;7.73;6.93;;;15.80;99.90;;;;;;5031597;28;20262;-65
2023/05/23 01:50:03;;;;;;;8.17;7.47;;;15.70;99.90;;;;;;5031428;28;20217;-65
2023/05/23 01:52:29;;;;;;;8.00;7.03;;;15.70;99.90;;;;;;5031566;28;20180;-65
2023/05/23 01:54:55;;;;;;;8.50;7.90;;;15.70;99.90;;;;;;5031678;28;20186;-65
2023/05/23 01:57:22;;;;;;;7.63;7.03;;;15.70;99.90;;;;;;5031529;28;20168;-65
2023/05/23 01:59:49;;;;;;;7.63;7.03;;;15.80;99.90;;;;;;5031396;28;20210;-67
2023/05/23 02:02:14;;;;;;;7.20;6.60;;;15.70;99.90;;;;;;5031385;28;20657;-65
2023/05/23 02:04:40;;;;;;;7.93;7.33;;;15.80;99.90;;;;;;5030159;28;20186;-65
2023/05/23 02:07:06;;;;;;;9.67;8.87;;;15.80;99.90;;;;;;5031331;28;20279;-66
2023/05/23 02:09:31;;;;;;;8.90;8.30;;;15.70;99.90;;;;;;5030965;28;20214;-65
2023/05/23 02:11:58;;;;;;;7.77;7.17;;;15.80;99.90;;;;;;5031884;28;20184;-65
2023/05/23 02:14:25;;;;;;;7.07;6.57;;;15.80;99.90;;;;;;5031316;28;20182;-65
2023/05/23 02:16:51;;;;;;;7.43;6.83;;;15.80;99.90;;;;;;5031383;28;20258;-65
2023/05/23 02:19:17;;;;;;;7.93;7.27;;;15.80;99.90;;;;;;5030801;28;20279;-65
2023/05/23 02:21:44;;;;;;;7.73;6.97;;;15.80;99.90;;;;;;5032265;28;20615;-68
2023/05/23 02:24:10;;;;;;;7.77;7.13;;;15.80;99.90;;;;;;5015035;28;20187;-68
2023/05/23 02:26:36;;;;;;;8.30;7.67;;;15.80;99.90;;;;;;5032515;28;20669;-69
2023/05/23 02:29:02;;;;;;;7.63;7.03;;;15.80;99.90;;;;;;5032619;28;20227;-71
2023/05/23 02:31:27;;;;;;;7.97;7.27;;;15.70;99.90;;;;;;5032160;28;20237;-71
2023/05/23 02:33:53;;;;;;;8.37;7.63;;;15.70;99.90;;;;;;5032973;28;20258;-71
2023/05/23 02:36:19;;;;;;;8.03;7.30;;;15.70;99.90;;;;;;5032665;28;20680;-70
2023/05/23 02:38:45;;;;;;;8.10;7.40;;;15.70;99.90;;;;;;5032149;28;20533;-69
2023/05/23 02:41:11;;;;;;;9.07;8.17;;;15.70;99.90;;;;;;5031988;28;20172;-69
2023/05/23 02:43:37;;;;;;;7.93;7.33;;;15.70;99.90;;;;;;5032541;28;20923;-68
2023/05/23 02:46:02;;;;;;;8.90;8.10;;;15.70;99.90;;;;;;5032650;28;20179;-69
2023/05/23 02:48:28;;;;;;;9.27;8.40;;;15.60;99.90;;;;;;5032205;28;20179;-70
2023/05/23 02:50:53;;;;;;;10.17;9.00;;;15.60;99.90;;;;;;5031986;28;20261;-68
2023/05/23 02:53:19;;;;;;;11.30;9.47;;;15.60;99.90;;;;;;5032188;28;20176;-69
2023/05/23 02:55:45;;;;;;;11.97;10.63;;;15.60;99.90;;;;;;5032461;28;20645;-69
2023/05/23 02:58:10;;;;;;;10.77;9.77;;;15.50;99.90;;;;;;5030937;28;20711;-71
2023/05/23 03:00:36;;;;;;;10.47;9.50;;;15.60;99.90;;;;;;5032047;28;20188;-69
2023/05/23 03:03:02;;;;;;;10.43;9.13;;;15.60;99.90;;;;;;5032109;28;20179;-71
2023/05/23 03:05:27;;;;;;;10.37;9.57;;;15.50;99.90;;;;;;5032042;28;20259;-71
2023/05/23 03:07:53;;;;;;;11.23;10.30;;;15.50;99.90;;;;;;5032052;28;20588;-70
2023/05/23 03:10:19;;;;;;;10.40;9.43;;;15.50;99.90;;;;;;5031765;28;20207;-70
2023/05/23 03:12:45;;;;;;;11.53;10.60;;;15.50;99.90;;;;;;5031799;28;20176;-71
2023/05/23 03:15:11;;;;;;;11.73;10.83;;;15.40;99.90;;;;;;5031455;28;20215;-68
2023/05/23 03:17:37;;;;;;;14.70;13.37;;;15.40;99.90;;;;;;5031775;28;20222;-69
2023/05/23 03:20:03;;;;;;;12.60;11.57;;;15.40;99.90;;;;;;5031766;28;20199;-67
2023/05/23 03:22:29;;;;;;;12.03;10.40;;;15.30;99.90;;;;;;5031882;28;20180;-72
2023/05/23 03:24:55;;;;;;;11.70;8.93;;;15.20;99.90;;;;;;5032004;28;20167;-72
2023/05/23 03:27:20;;;;;;;10.80;9.77;;;15.20;99.90;;;;;;5031871;28;20658;-69
2023/05/23 03:29:47;;;;;;;10.60;9.13;;;15.10;99.90;;;;;;5031867;28;20219;-71
2023/05/23 03:32:13;;;;;;;11.23;9.60;;;15.10;99.90;;;;;;5034235;28;20175;-69
2023/05/23 03:34:38;;;;;;;10.20;9.30;;;15.20;99.90;;;;;;5035327;28;20241;-72
2023/05/23 03:37:04;;;;;;;9.73;8.90;;;15.20;99.90;;;;;;5034926;28;20210;-71
2023/05/23 03:39:30;;;;;;;11.33;10.00;;;15.20;99.90;;;;;;5035098;28;20227;-70
2023/05/23 03:41:55;;;;;;;9.80;8.87;;;15.20;99.90;;;;;;5034957;28;20179;-69
2023/05/23 03:44:21;;;;;;;9.67;8.30;;;15.20;99.90;;;;;;5035700;28;20685;-70
2023/05/23 03:46:47;;;;;;;10.07;9.10;;;15.20;99.90;;;;;;5035266;28;20171;-72
2023/05/23 03:49:12;;;;;;;9.33;8.33;;;15.20;99.90;;;;;;5035207;28;20575;-71
2023/05/23 03:51:38;;;;;;;11.07;8.77;;;15.10;99.90;;;;;;5035004;28;20527;-71
2023/05/23 03:54:04;;;;;;;8.67;7.90;;;15.10;99.90;;;;;;5035263;28;20168;-69
2023/05/23 03:56:30;;;;;;;8.93;8.03;;;15.20;99.90;;;;;;5035007;28;20266;-72
2023/05/23 03:58:55;;;;;;;8.80;8.00;;;15.20;99.90;;;;;;5035348;28;20167;-73
2023/05/23 04:01:21;;;;;;;8.50;7.63;;;15.20;99.90;;;;;;5034449;28;20179;-68
2023/05/23 04:03:48;;;;;;;8.90;8.07;;;15.20;99.90;;;;;;5035665;28;20201;-72
2023/05/23 04:06:16;;;;;;;12.43;11.40;;;15.20;99.90;;;;;;5033546;28;20229;-69
2023/05/23 04:08:42;;;;;;;11.30;10.30;;;15.20;99.90;;;;;;5034736;28;20198;-68
2023/05/23 04:11:08;;;;;;;10.73;9.20;;;15.10;99.90;;;;;;5033108;28;20207;-71
2023/05/23 04:13:34;;;;;;;12.20;8.57;;;15.10;99.90;;;;;;5035027;28;20168;-71
2023/05/23 04:16:00;;;;;;;9.40;7.90;;;15.10;99.90;;;;;;5034858;28;20522;-69
2023/05/23 04:18:27;;;;;;;10.63;9.63;;;15.10;99.90;;;;;;5034311;28;20167;-73
2023/05/23 04:20:53;;;;;;;9.00;8.10;;;15.00;99.90;;;;;;5034186;28;20287;-72
2023/05/23 04:23:19;;;;;;;8.67;7.90;;;15.00;99.90;;;;;;5034807;28;20180;-69
2023/05/23 04:25:44;;;;;;;9.63;8.73;;;15.00;99.90;;;;;;5033459;28;20193;-70
2023/05/23 04:28:11;;;;;;;10.90;9.83;;;15.10;99.90;;;;;;5034926;28;20176;-70
2023/05/23 04:30:37;;;;;;;9.83;8.97;;;15.10;99.90;;;;;;5033778;28;20214;-70
2023/05/23 04:33:02;;;;;;;10.53;9.60;;;15.10;99.90;;;;;;5033099;28;20547;-70
2023/05/23 04:35:28;;;;;;;10.90;9.00;;;15.10;99.90;;;;;;5033303;28;20263;-70
2023/05/23 04:37:55;;;;;;;9.70;8.53;;;15.10;99.90;;;;;;5033995;28;20641;-71
2023/05/23 04:40:24;;;;;;;9.80;8.80;;;15.10;99.90;;;;;;5033431;28;20199;-65
2023/05/23 04:42:52;;;;;;;9.53;8.30;;;15.10;99.90;;;;;;5032465;28;20250;-65
2023/05/23 04:45:18;;;;;;;9.80;8.90;;;15.10;99.90;;;;;;5032136;28;20175;-65
2023/05/23 04:47:44;;;;;;;9.30;8.50;;;15.10;99.90;;;;;;5031495;28;20190;-64
2023/05/23 04:50:10;;;;;;;9.83;8.03;;;15.10;99.90;;;;;;5032869;28;20689;-65
2023/05/23 04:52:36;;;;;;;8.83;8.00;;;15.10;99.90;;;;;;5032623;28;20283;-65
2023/05/23 04:55:02;;;;;;;10.20;8.43;;;15.10;99.90;;;;;;5032553;28;20179;-65
2023/05/23 04:57:28;;;;;;;8.80;8.10;;;15.10;99.90;;;;;;5032457;28;20321;-65
2023/05/23 04:59:53;;;;;;;10.03;9.03;;;15.10;99.90;;;;;;5032711;28;20201;-64
2023/05/23 05:02:19;;;;;;;10.77;9.87;;;15.10;99.90;;;;;;5032879;28;20262;-65
2023/05/23 05:04:44;;;;;;;9.87;8.87;;;15.10;99.90;;;;;;5032416;28;20215;-64
2023/05/23 05:07:10;;;;;;;10.03;9.20;;;15.20;99.90;;;;;;5032440;28;20187;-65
2023/05/23 05:09:36;;;;;;;9.70;8.80;;;15.10;99.90;;;;;;5031763;28;20215;-65
2023/05/23 05:12:01;;;;;;;9.83;9.10;;;15.20;99.90;;;;;;5032445;28;20175;-64
2023/05/23 05:14:27;;;;;;;11.07;9.87;;;15.30;99.90;;;;;;5032389;28;20179;-65
2023/05/23 05:16:56;;;;;;;9.47;8.67;;;15.30;99.90;;;;;;5032106;28;20217;-65
2023/05/23 05:19:22;;;;;;;9.87;8.93;;;15.40;99.90;;;;;;5031982;28;20191;-64
2023/05/23 05:21:48;;;;;;;12.23;11.23;;;15.40;99.90;;;;;;5031923;28;20171;-65
2023/05/23 05:24:14;;;;;;;12.97;11.77;;;15.40;99.90;;;;;;5032314;28;20202;-64
2023/05/23 05:26:40;;;;;;;10.37;9.47;;;15.40;99.90;;;;;;5032035;28;20634;-65
2023/05/23 05:29:06;;;;;;;10.03;9.03;;;15.40;99.90;;;;;;5031772;28;20680;-64
2023/05/23 05:31:32;;;;;;;11.60;10.70;;;15.30;99.90;;;;;;5031763;28;20208;-64
2023/05/23 05:33:58;;;;;;;13.50;12.40;;;15.30;99.90;;;;;;5032215;28;20590;-65
2023/05/23 05:36:23;;;;;;;13.17;12.10;;;15.30;99.90;;;;;;5031820;28;20225;-65
2023/05/23 05:38:49;;;;;;;12.87;11.67;;;15.30;99.90;;;;;;5031966;28;20171;-64
2023/05/23 05:41:15;;;;;;;11.17;10.10;;;15.30;99.90;;;;;;5031514;28;20171;-65
2023/05/23 05:43:41;;;;;;;14.77;13.57;;;15.30;99.90;;;;;;5030535;28;20179;-65
2023/05/23 05:46:06;;;;;;;13.27;11.87;;;15.20;99.90;;;;;;5031713;28;20183;-64
2023/05/23 05:48:32;;;;;;;11.80;10.57;;;15.10;99.90;;;;;;5031795;28;20167;-65
2023/05/23 05:50:59;;;;;;;11.00;10.00;;;15.20;99.90;;;;;;5031088;28;20199;-65
2023/05/23 05:53:25;;;;;;;13.50;12.40;;;15.20;99.90;;;;;;5031421;28;20191;-64
2023/05/23 05:55:52;;;;;;;11.30;10.20;;;15.20;99.90;;;;;;5027565;28;20203;-65
2023/05/23 05:58:18;;;;;;;11.23;10.17;;;15.20;99.90;;;;;;5019344;28;20180;-65
2023/05/23 06:00:44;;;;;;;10.43;9.40;;;15.20;99.90;;;;;;5030877;28;20304;-64
2023/05/23 06:03:10;;;;;;;10.77;9.77;;;15.20;99.90;;;;;;5031624;28;20175;-65
2023/05/23 06:05:36;;;;;;;11.63;10.33;;;15.20;99.90;;;;;;5031937;28;20176;-65
2023/05/23 06:08:02;;;;;;;10.57;9.53;;;15.30;99.90;;;;;;5030110;28;20183;-64
2023/05/23 06:10:28;;;;;;;10.97;9.87;;;15.30;99.90;;;;;;5030796;28;20230;-65
2023/05/23 06:12:54;;;;;;;11.47;10.33;;;15.20;99.90;;;;;;5031401;28;20538;-65
2023/05/23 06:15:20;;;;;;;11.20;10.20;;;15.30;99.90;;;;;;5031155;28;20171;-65
2023/05/23 06:17:45;;;;;;;12.50;10.40;;;15.40;99.90;;;;;;5030172;28;20183;-64
2023/05/23 06:20:11;;;;;;;16.00;14.53;;;15.30;99.90;;;;;;5030875;28;20191;-64
2023/05/23 06:22:37;;;;;;;14.17;13.10;;;15.40;99.90;;;;;;5031164;28;20218;-65
2023/05/23 06:25:03;;;;;;;17.83;16.33;;;15.40;99.90;;;;;;5031175;28;20171;-64
2023/05/23 06:27:28;;;;;;;16.10;11.97;;;15.60;99.90;;;;;;5031099;28;20305;-65
2023/05/23 06:29:54;;;;;;;11.40;10.40;;;15.70;99.90;;;;;;5031149;28;20290;-64
2023/05/23 06:32:20;;;;;;;11.07;10.07;;;15.80;99.90;;;;;;5031122;28;20175;-64
2023/05/23 06:34:45;;;;;;;10.53;7.80;;;15.90;99.90;;;;;;5031145;28;20183;-64
2023/05/23 06:37:11;;;;;;;10.13;9.17;;;15.90;99.90;;;;;;5030838;28;20172;-64
2023/05/23 06:39:36;;;;;;;9.93;9.03;;;15.90;99.90;;;;;;5029296;28;20225;-64
2023/05/23 06:42:03;;;;;;;10.47;9.00;;;15.70;99.90;;;;;;5029187;28;20183;-65
2023/05/23 06:44:28;;;;;;;9.50;8.50;;;15.70;99.90;;;;;;5029731;28;20184;-65
2023/05/23 06:46:56;;;;;;;11.00;9.03;;;15.70;99.90;;;;;;5030763;28;20191;-65
2023/05/23 06:49:25;;;;;;;9.70;8.60;;;15.80;99.90;;;;;;5030038;28;20321;-65
2023/05/23 06:51:51;;;;;;;9.40;8.60;;;15.90;99.90;;;;;;5026739;28;20180;-64
2023/05/23 06:54:17;;;;;;;8.60;7.87;;;15.90;99.90;;;;;;5030688;28;20249;-65
2023/05/23 06:56:42;;;;;;;10.43;8.67;;;16.00;99.90;;;;;;5030570;28;20188;-64
2023/05/23 06:59:08;;;;;;;9.20;8.33;;;16.00;99.90;;;;;;5028873;28;20715;-65
2023/05/23 07:01:33;;;;;;;9.90;7.77;;;16.00;99.90;;;;;;5030307;28;20171;-64
2023/05/23 07:03:59;;;;;;;8.73;7.97;;;16.00;99.90;;;;;;5030878;28;20175;-64
2023/05/23 07:06:26;;;;;;;14.90;8.17;;;16.00;99.90;;;;;;5033660;28;20184;-65
2023/05/23 07:08:52;;;;;;;8.67;7.80;;;16.00;99.90;;;;;;5034440;28;20187;-65
2023/05/23 07:11:20;;;;;;;9.37;8.50;;;16.00;99.90;;;;;;5033896;28;20203;-64
2023/05/23 07:13:46;;;;;;;8.20;7.40;;;16.00;99.90;;;;;;5034551;28;20174;-65
2023/05/23 07:16:11;;;;;;;8.97;8.10;;;16.00;99.90;;;;;;5033882;28;20179;-64
2023/05/23 07:18:37;;;;;;;8.90;8.00;;;16.10;99.90;;;;;;5034063;28;20180;-64
2023/05/23 07:21:02;;;;;;;9.80;8.07;;;16.10;99.90;;;;;;5033660;28;20207;-64
2023/05/23 07:23:32;;;;;;;11.60;10.60;;;16.20;99.90;;;;;;5033977;28;20661;-64
2023/05/23 07:25:58;;;;;;;14.13;12.80;;;16.30;99.90;;;;;;5034244;28;20649;-64
2023/05/23 07:28:24;;;;;;;10.70;9.57;;;16.40;99.90;;;;;;5033759;28;20183;-65
2023/05/23 07:30:50;;;;;;;8.90;7.27;;;16.50;99.90;;;;;;5032788;28;20207;-65
2023/05/23 07:33:15;;;;;;;11.10;10.13;;;16.60;99.90;;;;;;5033834;28;20182;-67
2023/05/23 07:35:41;;;;;;;8.83;8.13;;;16.80;99.90;;;;;;5033611;28;20199;-64
2023/05/23 07:38:06;;;;;;;8.83;8.00;;;16.90;99.90;;;;;;5034240;28;20645;-65
2023/05/23 07:40:32;;;;;;;9.10;8.20;;;16.90;99.90;;;;;;5033096;28;20195;-65
2023/05/23 07:42:59;;;;;;;9.43;8.60;;;17.00;99.90;;;;;;5032814;28;20172;-64
2023/05/23 07:45:24;;;;;;;10.40;9.37;;;17.20;99.90;;;;;;5032848;28;20649;-65
2023/05/23 07:47:50;;;;;;;9.47;8.20;;;17.40;99.90;;;;;;5034138;28;20238;-65
2023/05/23 07:50:16;;;;;;;14.93;13.63;;;17.30;99.90;;;;;;5032068;28;20213;-64
2023/05/23 07:52:42;;;;;;;11.83;10.13;;;17.30;99.90;;;;;;5032816;28;20593;-64
2023/05/23 07:55:08;;;;;;;9.67;8.73;;;17.20;99.90;;;;;;5033557;28;20176;-64
2023/05/23 07:57:34;;;;;;;10.83;8.40;;;17.20;99.90;;;;;;5032422;28;20176;-64
2023/05/23 07:59:59;;;;;;;10.30;8.47;;;17.10;99.90;;;;;;5031603;28;20265;-64
2023/05/23 08:02:25;;;;;;;11.93;10.63;;;16.90;99.90;;;;;;5033398;28;20189;-64
2023/05/23 08:04:52;;;;;;;14.50;13.40;;;16.70;99.90;;;;;;5033693;28;20175;-64
2023/05/23 08:07:18;;;;;;;12.13;11.33;;;16.70;99.90;;;;;;5032349;28;20205;-65
2023/05/23 08:09:44;;;;;;;13.57;12.40;;;16.70;99.90;;;;;;5033184;28;20582;-64
2023/05/23 08:12:10;;;;;;;9.83;8.87;;;16.60;99.90;;;;;;5033854;28;20233;-64
2023/05/23 08:14:35;;;;;;;10.03;9.03;;;16.60;99.90;;;;;;5033477;28;20179;-65
2023/05/23 08:17:02;;;;;;;10.50;9.40;;;16.50;99.90;;;;;;5032796;28;20286;-65
2023/05/23 08:19:28;;;;;;;11.13;9.73;;;16.50;99.90;;;;;;5026910;28;20254;-65
2023/05/23 08:21:54;;;;;;;13.77;9.17;;;16.40;99.90;;;;;;5027141;28;20191;-65
2023/05/23 08:24:20;;;;;;;11.10;8.40;;;16.30;99.90;;;;;;5033176;28;20186;-64
2023/05/23 08:26:46;;;;;;;13.53;9.10;;;16.20;99.90;;;;;;5032159;28;20630;-64
2023/05/23 08:29:12;;;;;;;11.87;9.27;;;16.10;99.90;;;;;;5031552;28;20203;-64
2023/05/23 08:31:38;;;;;;;12.67;9.43;;;16.00;99.90;;;;;;5032930;28;20210;-65
2023/05/23 08:34:03;;;;;;;14.50;9.00;;;16.00;99.90;;;;;;5032318;28;20203;-65
2023/05/23 08:36:33;;;;;;;16.93;9.80;;;15.90;99.90;;;;;;5033200;28;20194;-65
2023/05/23 08:38:58;;;;;;;11.57;8.97;;;15.80;99.90;;;;;;5032984;28;20175;-64
2023/05/23 08:41:25;;;;;;;11.30;9.73;;;15.90;99.90;;;;;;5030907;28;20648;-65
2023/05/23 08:43:51;;;;;;;12.30;8.77;;;15.90;99.90;;;;;;5033291;28;20179;-64
2023/05/23 08:46:17;;;;;;;12.53;9.20;;;16.00;99.90;;;;;;5033129;28;20171;-65
2023/05/23 08:48:45;;;;;;;14.70;8.70;;;16.00;99.90;;;;;;5032903;28;20172;-65
2023/05/23 08:51:12;;;;;;;17.83;10.97;;;16.00;99.90;;;;;;5032587;28;20606;-65
2023/05/23 08:53:43;;;;;;;14.47;9.77;;;16.00;99.90;;;;;;5031567;28;20191;-64
2023/05/23 08:56:09;;;;;;;12.87;10.07;;;15.90;99.90;;;;;;5032881;28;20657;-67
2023/05/23 08:58:34;;;;;;;15.63;10.93;;;15.80;99.90;;;;;;5032980;28;20176;-65
2023/05/23 09:01:01;;;;;;;14.23;10.93;;;15.60;99.90;;;;;;5032308;28;20673;-65
2023/05/23 09:03:27;;;;;;;12.07;10.00;;;15.40;99.90;;;;;;5032892;28;20625;-65
2023/05/23 09:05:56;;;;;;;16.17;9.50;;;15.30;99.90;;;;;;5032771;28;20179;-65
2023/05/23 09:08:26;;;;;;;13.63;9.83;;;15.30;99.90;;;;;;5032519;28;20171;-64
2023/05/23 09:10:52;;;;;;;11.43;9.03;;;15.40;99.90;;;;;;5032304;28;20724;-65
2023/05/23 09:13:19;;;;;;;10.93;8.97;;;15.30;99.90;;;;;;5032505;28;20171;-64
2023/05/23 09:15:59;;;;;;;11.33;8.23;;;15.30;99.90;;;;;;5032593;28;20175;-65
2023/05/23 09:18:26;;;;;;;17.47;8.20;;;15.40;99.90;;;;;;5032383;28;20175;-64
2023/05/23 09:20:52;;;;;;;12.23;8.63;;;15.60;99.90;;;;;;5030707;28;20273;-64
2023/05/23 09:23:18;;;;;;;10.93;9.17;;;15.70;99.90;;;;;;5030459;28;20646;-64
2023/05/23 09:25:47;;;;;;;13.10;9.27;;;15.70;99.90;;;;;;5023616;28;20287;-64
2023/05/23 09:28:13;;;;;;;12.03;9.53;;;15.70;99.90;;;;;;5012026;28;20251;-64
2023/05/23 09:30:38;;;;;;;13.63;9.50;;;15.70;99.90;;;;;;5010945;28;20220;-65
2023/05/23 09:33:04;;;;;;;14.00;8.40;;;15.70;99.90;;;;;;5011720;28;20172;-65
2023/05/23 09:35:30;;;;;;;12.00;8.10;;;15.70;99.90;;;;;;5022086;28;20190;-65
2023/05/23 09:37:58;;;;;;;10.40;8.50;;;15.80;99.90;;;;;;5032119;28;20172;-64
2023/05/23 09:40:29;;;;;;;11.13;9.33;;;15.80;99.90;;;;;;5031438;28;20596;-64
2023/05/23 09:43:00;;;;;;;9.70;7.77;;;15.60;99.90;;;;;;5032178;28;20258;-65
2023/05/23 09:45:32;;;;;;;12.30;8.67;;;15.50;99.90;;;;;;5031830;28;20339;-64
2023/05/23 09:47:58;;;;;;;13.67;8.50;;;15.50;99.90;;;;;;5032135;28;20179;-64
2023/05/23 09:50:30;;;;;;;10.13;8.57;;;15.50;99.90;;;;;;5030216;28;20211;-64
2023/05/23 09:52:56;;;;;;;12.10;8.13;;;15.80;99.90;;;;;;5031953;28;20171;-64
2023/05/23 09:55:22;;;;;;;11.13;8.40;;;15.70;99.90;;;;;;5031319;28;20205;-64
2023/05/23 09:57:53;;;;;;;9.33;7.53;;;15.70;99.90;;;;;;5031617;28;20861;-65
2023/05/23 10:00:19;;;;;;;12.43;8.27;;;15.70;99.90;;;;;;5027127;28;20302;-67
2023/05/23 10:03:15;;;;;;;10.27;7.67;;;15.90;99.90;;;;;;5011847;28;20176;-65
2023/05/23 10:05:45;;;;;;;11.83;10.80;;;16.20;99.90;;;;;;5031085;28;20183;-65
2023/05/23 10:08:15;;;;;;;10.63;9.63;;;16.20;99.90;;;;;;5031860;28;20184;-64
2023/05/23 10:10:55;;;;;;;9.60;7.60;;;16.40;99.90;;;;;;5030681;28;20215;-64
2023/05/23 10:13:25;;;;;;;7.80;6.93;;;16.70;99.90;;;;;;5031246;28;20232;-65
2023/05/23 10:15:57;;;;;;;7.03;6.23;;;17.20;99.90;;;;;;5031267;28;20625;-65
2023/05/23 10:18:28;;;;;;;10.70;7.30;;;17.90;99.90;;;;;;5031339;28;20176;-65
2023/05/23 10:21:00;;;;;;;9.50;6.20;;;18.40;99.90;;;;;;5028588;28;20195;-66
2023/05/23 10:23:28;;;;;;;9.97;7.33;;;18.60;99.90;;;;;;5030744;28;20195;-66
2023/05/23 10:25:54;;;;;;;7.83;7.00;;;18.20;99.90;;;;;;5031409;28;20178;-66
2023/05/23 10:28:20;;;;;;;8.67;7.77;;;17.80;99.90;;;;;;5030869;28;20187;-66
2023/05/23 10:30:46;;;;;;;10.97;6.73;;;17.20;99.90;;;;;;5030799;28;20230;-66
2023/05/23 10:33:15;;;;;;;10.37;6.87;;;16.70;99.90;;;;;;5030389;28;20369;-66
2023/05/23 10:36:09;;;;;;;8.93;7.23;;;16.40;99.90;;;;;;5030401;28;20175;-65
2023/05/23 10:39:04;;;;;;;9.00;8.37;;;16.00;99.90;;;;;;5031022;28;20175;-65
2023/05/23 10:41:35;;;;;;;9.47;8.77;;;15.80;99.90;;;;;;5025954;28;20270;-65
2023/05/23 10:44:11;;;;;;;13.03;10.63;;;15.70;99.90;;;;;;5035262;28;20183;-65
2023/05/23 10:47:03;;;;;;;12.17;11.37;;;15.70;99.90;;;;;;5034788;28;20256;-66
2023/05/23 10:49:53;;;;;;;10.20;9.37;;;15.70;99.90;;;;;;5032374;28;20219;-65
2023/05/23 10:52:20;;;;;;;9.60;8.57;;;15.80;99.90;;;;;;5035135;28;20172;-66
2023/05/23 10:54:51;;;;;;;9.30;8.40;;;16.00;99.90;;;;;;5033400;28;20274;-65
2023/05/23 10:57:18;;;;;;;10.63;8.40;;;16.20;99.90;;;;;;5034964;28;20205;-65
2023/05/23 10:59:48;;;;;;;9.93;7.10;;;16.50;99.90;;;;;;5034164;28;20677;-65
2023/05/23 11:02:16;;;;;;;7.30;6.60;;;16.70;99.90;;;;;;5035103;28;20179;-65
2023/05/23 11:04:42;;;;;;;8.80;6.77;;;16.80;99.90;;;;;;5034380;28;20214;-65
2023/05/23 11:07:27;;;;;;;8.57;6.60;;;16.70;99.90;;;;;;5034531;28;20210;-66
2023/05/23 11:10:18;;;;;;;7.83;7.00;;;16.60;99.90;;;;;;5034281;28;20288;-65
2023/05/23 11:12:44;;;;;;;7.07;6.40;;;16.80;99.90;;;;;;5031084;28;20195;-65
2023/05/23 11:15:16;;;;;;;10.40;6.60;;;17.10;99.90;;;;;;5034550;28;20290;-65
2023/05/23 11:17:50;;;;;;;12.00;6.47;;;17.60;99.90;;;;;;5034326;28;20225;-66
2023/05/23 11:20:22;;;;;;;7.80;6.33;;;18.10;99.90;;;;;;5033881;28;20211;-65
2023/05/23 11:23:01;;;;;;;8.43;6.60;;;18.30;99.90;;;;;;5033950;28;20699;-66
2023/05/23 11:26:02;;;;;;;8.03;6.30;;;18.70;99.90;;;;;;5033836;28;20183;-66
2023/05/23 11:28:28;;;;;;;6.37;5.60;;;19.00;99.90;;;;;;5012040;28;20193;-66
2023/05/23 11:30:56;;;;;;;11.00;6.60;;;19.50;99.90;;;;;;5029009;28;20219;-66
2023/05/23 11:33:22;;;;;;;30.15;7.20;;;19.90;99.90;;;;;;5033292;28;20175;-66
2023/05/23 11:35:50;;;;;;;9.57;6.50;;;20.10;99.90;;;;;;5033930;28;20188;-65
2023/05/23 11:38:16;;;;;;;6.88;5.70;;;19.90;99.90;;;;;;5034180;28;20230;-65
2023/05/23 11:40:45;;;;;;;6.97;6.22;;;19.90;99.90;;;;;;5033523;28;20203;-65
2023/05/23 11:43:15;;;;;;;6.07;5.47;;;19.90;99.90;;;;;;5032803;28;20234;-66
2023/05/23 11:45:41;;;;;;;7.17;6.50;;;20.30;99.90;;;;;;5033646;28;20185;-66
2023/05/23 11:48:15;;;;;;;7.85;7.15;;;20.60;99.90;;;;;;5033954;28;20233;-66
2023/05/23 11:50:52;;;;;;;7.03;6.38;;;20.70;99.90;;;;;;5032244;28;20572;-66
2023/05/23 11:53:20;;;;;;;8.73;7.82;;;20.80;99.90;;;;;;5025070;28;20242;-66
2023/05/23 11:55:58;;;;;;;8.15;7.10;;;20.60;99.90;;;;;;5030817;28;20183;-66
2023/05/23 11:58:38;;;;;;;10.38;5.85;;;20.40;99.90;;;;;;5033787;28;20225;-66
2023/05/23 12:01:08;;;;;;;7.73;6.67;;;19.90;99.90;;;;;;5033405;28;20206;-65
2023/05/23 12:03:48;;;;;;;9.30;5.73;;;19.50;99.90;;;;;;5032853;28;20195;-65
2023/05/23 12:06:15;;;;;;;6.83;6.23;;;18.90;99.90;;;;;;5033143;28;20649;-65
2023/05/23 12:08:41;;;;;;;7.73;6.20;;;18.80;99.90;;;;;;5033468;28;20593;-66
2023/05/23 12:11:06;;;;;;;5.93;5.33;;;18.90;99.90;;;;;;5032858;28;20229;-66
2023/05/23 12:13:32;;;;;;;6.80;6.07;;;19.20;99.90;;;;;;5033452;28;20493;-65
2023/05/23 12:16:01;;;;;;;9.00;5.67;;;19.60;99.90;;;;;;5033306;28;20257;-65
2023/05/23 12:18:29;;;;;;;9.73;6.30;;;19.50;99.90;;;;;;5033391;28;20692;-66
2023/05/23 12:21:04;;;;;;;6.73;6.07;;;19.50;99.90;;;;;;5032690;28;20261;-65
2023/05/23 12:23:30;;;;;;;7.03;6.30;;;19.70;99.90;;;;;;5033134;28;20203;-66
2023/05/23 12:25:57;;;;;;;6.77;6.00;;;19.90;99.90;;;;;;5032941;28;20187;-65
2023/05/23 12:28:41;;;;;;;9.47;5.23;;;19.90;99.90;;;;;;5033246;28;20182;-65
2023/05/23 12:31:11;;;;;;;6.63;5.10;;;19.90;99.90;;;;;;5032272;28;20211;-66
2023/05/23 12:33:42;;;;;;;8.93;4.95;;;19.90;99.90;;;;;;5032750;28;20183;-65
2023/05/23 12:36:08;;;;;;;6.63;5.70;;;19.90;99.90;;;;;;5033062;28;20167;-65
2023/05/23 12:38:36;;;;;;;6.63;4.87;;;19.60;99.90;;;;;;5032689;28;20183;-65
2023/05/23 12:41:19;;;;;;;9.90;5.30;;;19.60;99.90;;;;;;5032710;28;20192;-65